createdAt,value
2022-09-14T00:01:44.580Z,4.07
2022-09-14T00:03:46.335Z,4.06
2022-09-14T00:05:47.899Z,4.07
2022-09-14T00:09:50.646Z,4.07
2022-09-14T00:11:51.970Z,4.06
2022-09-14T00:13:53.661Z,4.06
2022-09-14T00:15:54.851Z,4.06
2022-09-14T00:17:56.246Z,4.07
2022-09-14T00:19:57.688Z,4.06
2022-09-14T00:21:59.471Z,4.06
2022-09-14T00:26:02.042Z,4.06
2022-09-14T00:28:03.212Z,4.06
2022-09-14T00:30:04.930Z,4.06
2022-09-14T00:34:07.129Z,4.06
2022-09-14T00:38:09.697Z,4.06
2022-09-14T00:40:10.682Z,4.06
2022-09-14T00:42:12.099Z,4.06
2022-09-14T00:44:13.506Z,4.06
2022-09-14T00:46:14.938Z,4.06
2022-09-14T00:48:16.091Z,4.06
2022-09-14T00:52:18.277Z,4.06
2022-09-14T00:54:19.935Z,4.06
2022-09-14T00:56:21.623Z,4.06
2022-09-14T00:58:23.481Z,4.06
2022-09-14T01:00:24.694Z,4.06
2022-09-14T01:02:25.628Z,4.06
2022-09-14T01:04:27.250Z,4.06
2022-09-14T01:06:28.195Z,4.06
2022-09-14T01:08:29.785Z,4.06
2022-09-14T01:10:31.612Z,4.06
2022-09-14T01:12:32.948Z,4.06
2022-09-14T01:14:34.119Z,4.06
2022-09-14T01:18:37.370Z,4.06
2022-09-14T01:20:38.675Z,4.06
2022-09-14T01:22:40.153Z,4.06
2022-09-14T01:24:41.909Z,4.06
2022-09-14T01:26:43.732Z,4.06
2022-09-14T01:28:44.775Z,4.06
2022-09-14T01:30:46.634Z,4.05
2022-09-14T01:34:49.236Z,4.05
2022-09-14T01:36:50.973Z,4.05
2022-09-14T01:38:52.409Z,4.05
2022-09-14T01:40:53.962Z,4.05
2022-09-14T01:42:55.354Z,4.05
2022-09-14T01:44:56.819Z,4.05
2022-09-14T01:46:57.852Z,4.05
2022-09-14T01:48:58.981Z,4.05
2022-09-14T01:51:00.152Z,4.05
2022-09-14T01:53:01.535Z,4.05
2022-09-14T01:55:02.514Z,4.05
2022-09-14T01:57:04.205Z,4.05
2022-09-14T01:59:05.860Z,4.05
2022-09-14T02:03:08.766Z,4.05
2022-09-14T02:05:09.683Z,4.04
2022-09-14T02:07:11.504Z,4.05
2022-09-14T02:09:12.794Z,4.05
2022-09-14T02:11:13.887Z,4.05
2022-09-14T02:13:15.473Z,4.05
2022-09-14T02:17:17.608Z,4.05
2022-09-14T02:19:23.129Z,4.04
2022-09-14T02:21:20.386Z,4.05
2022-09-14T02:23:21.330Z,4.04
2022-09-14T02:25:22.450Z,4.05
2022-09-14T02:27:23.946Z,4.05
2022-09-14T02:29:25.519Z,4.04
2022-09-14T02:33:28.769Z,4.04
2022-09-14T02:35:30.503Z,4.04
2022-09-14T02:37:31.566Z,4.04
2022-09-14T02:39:33.309Z,4.04
2022-09-14T02:41:34.247Z,4.04
2022-09-14T02:43:36.120Z,4.04
2022-09-14T02:45:37.223Z,4.04
2022-09-14T02:49:39.180Z,4.04
2022-09-14T02:51:40.978Z,4.04
2022-09-14T02:53:42.268Z,4.04
2022-09-14T02:57:44.741Z,4.04
2022-09-14T02:59:46.365Z,4.04
2022-09-14T03:01:47.480Z,4.04
2022-09-14T03:03:49.266Z,4.04
2022-09-14T03:05:51.109Z,4.04
2022-09-14T03:07:51.982Z,4.04
2022-09-14T03:09:53.176Z,4.04
2022-09-14T03:11:54.250Z,4.04
2022-09-14T03:15:56.817Z,4.04
2022-09-14T03:17:58.524Z,4.04
2022-09-14T03:20:00.118Z,4.04
2022-09-14T03:22:01.813Z,4.04
2022-09-14T03:24:03.198Z,4.04
2022-09-14T03:26:05.046Z,4.04
2022-09-14T03:28:06.516Z,4.04
2022-09-14T03:32:09.441Z,4.04
2022-09-14T03:34:10.641Z,4.04
2022-09-14T03:36:11.810Z,4.04
2022-09-14T03:38:13.152Z,4.04
2022-09-14T03:42:16.368Z,4.04
2022-09-14T03:44:17.744Z,4.04
2022-09-14T03:48:20.863Z,4.04
2022-09-14T03:50:21.999Z,4.04
2022-09-14T03:52:23.457Z,4.04
2022-09-14T03:54:25.049Z,4.04
2022-09-14T03:58:27.903Z,4.03
2022-09-14T04:00:28.961Z,4.04
2022-09-14T04:02:30.784Z,4.03
2022-09-14T04:04:32.477Z,4.03
2022-09-14T04:06:33.364Z,4.03
2022-09-14T04:08:35.204Z,4.03
2022-09-14T04:10:36.848Z,4.03
2022-09-14T04:14:40.316Z,4.03
2022-09-14T04:16:41.254Z,4.03
2022-09-14T04:18:42.548Z,4.03
2022-09-14T04:20:43.678Z,4.03
2022-09-14T04:24:45.731Z,4.03
2022-09-14T04:26:47.218Z,4.03
2022-09-14T04:28:48.843Z,4.03
2022-09-14T04:30:50.580Z,4.03
2022-09-14T04:32:52.072Z,4.03
2022-09-14T04:34:53.106Z,4.03
2022-09-14T04:36:54.129Z,4.03
2022-09-14T04:41:05.404Z,4.03
2022-09-14T04:42:59.066Z,4.03
2022-09-14T04:47:01.997Z,4.03
2022-09-14T04:49:02.999Z,4.03
2022-09-14T04:51:04.424Z,4.03
2022-09-14T04:53:05.377Z,4.03
2022-09-14T04:57:07.926Z,4.02
2022-09-14T04:59:09.733Z,4.02
2022-09-14T05:01:10.816Z,4.02
2022-09-14T05:03:12.541Z,4.02
2022-09-14T05:07:14.713Z,4.02
2022-09-14T05:09:15.719Z,4.02
2022-09-14T05:13:18.217Z,4.03
2022-09-14T05:15:19.657Z,4.03
2022-09-14T05:17:21.117Z,4.02
2022-09-14T05:19:22.988Z,4.02
2022-09-14T05:23:24.992Z,4.02
2022-09-14T05:25:25.852Z,4.02
2022-09-14T05:27:27.244Z,4.02
2022-09-14T05:29:28.179Z,4.03
2022-09-14T05:31:29.732Z,4.02
2022-09-14T05:33:30.530Z,4.02
2022-09-14T05:35:32.187Z,4.02
2022-09-14T05:39:34.398Z,4.02
2022-09-14T05:41:35.950Z,4.02
2022-09-14T05:43:37.569Z,4.02
2022-09-14T05:45:39.332Z,4.02
2022-09-14T05:47:40.264Z,4.02
2022-09-14T05:49:41.993Z,4.02
2022-09-14T05:51:43.343Z,4.02
2022-09-14T05:55:46.551Z,4.02
2022-09-14T05:57:47.913Z,4.02
2022-09-14T05:59:49.684Z,4.02
2022-09-14T06:01:50.783Z,4.02
2022-09-14T06:02:34.572Z,4.02
2022-09-14T06:04:36.271Z,4.02
2022-09-14T06:06:37.147Z,4.02
2022-09-14T06:08:38.120Z,4.02
2022-09-14T06:10:39.080Z,4.02
2022-09-14T06:12:39.960Z,4.02
2022-09-14T06:16:43.236Z,4.02
2022-09-14T06:18:44.877Z,4.02
2022-09-14T06:20:45.826Z,4.02
2022-09-14T06:22:47.219Z,4.02
2022-09-14T06:24:48.653Z,4.02
2022-09-14T06:26:49.786Z,4.02
2022-09-14T06:28:50.862Z,4.01
2022-09-14T06:32:52.890Z,4.01
2022-09-14T06:34:54.370Z,4.01
2022-09-14T06:36:55.329Z,4.01
2022-09-14T06:38:56.765Z,4.01
2022-09-14T06:42:59.461Z,4.01
2022-09-14T06:45:00.757Z,4.01
2022-09-14T06:47:02.454Z,4.01
2022-09-14T06:49:04.090Z,4.01
2022-09-14T06:51:05.171Z,4.01
2022-09-14T06:53:06.267Z,4.01
2022-09-14T06:55:07.356Z,4.01
2022-09-14T06:59:09.437Z,4.01
2022-09-14T07:01:10.572Z,4.01
2022-09-14T07:03:12.361Z,4.01
2022-09-14T07:05:13.504Z,4.01
2022-09-14T07:07:15.175Z,4.01
2022-09-14T07:09:16.719Z,4.01
2022-09-14T07:11:17.902Z,4.01
2022-09-14T07:15:20.251Z,4.01
2022-09-14T07:17:21.347Z,4.01
2022-09-14T07:19:22.930Z,4.01
2022-09-14T07:21:24.113Z,4.01
2022-09-14T07:23:24.995Z,4.01
2022-09-14T07:25:26.312Z,4.01
2022-09-14T07:27:28.056Z,4.01
2022-09-14T07:31:30.397Z,4.01
2022-09-14T07:33:32.140Z,4.01
2022-09-14T07:35:33.051Z,4.01
2022-09-14T07:37:34.008Z,4.01
2022-09-14T07:41:36.762Z,4
2022-09-14T07:43:38.318Z,4
2022-09-14T07:45:40.008Z,4
2022-09-14T07:47:40.865Z,4
2022-09-14T07:49:42.106Z,4
2022-09-14T07:51:43.347Z,4
2022-09-14T07:53:44.554Z,4
2022-09-14T07:57:55.925Z,4
2022-09-14T07:59:48.692Z,4.01
2022-09-14T08:03:51.654Z,4
2022-09-14T08:05:53.068Z,4.01
2022-09-14T08:07:53.936Z,4.01
2022-09-14T08:09:55.366Z,4.01
2022-09-14T08:13:58.410Z,4
2022-09-14T08:15:59.346Z,4.01
2022-09-14T08:18:00.396Z,4
2022-09-14T08:20:01.781Z,4.01
2022-09-14T08:24:04.482Z,4
2022-09-14T08:26:06.092Z,4
2022-09-14T08:28:07.797Z,4
2022-09-14T08:30:09.122Z,4.01
2022-09-14T08:32:10.207Z,4
2022-09-14T08:34:11.552Z,4
2022-09-14T08:36:12.924Z,4
2022-09-14T08:40:15.537Z,4
2022-09-14T08:42:17.164Z,4
2022-09-14T08:46:19.909Z,4
2022-09-14T08:48:21.421Z,4
2022-09-14T08:50:22.508Z,4.01
2022-09-14T08:52:24.336Z,4.01
2022-09-14T08:56:26.994Z,4.01
2022-09-14T08:58:28.054Z,4.02
2022-09-14T09:00:29.892Z,4.02
2022-09-14T09:02:31.658Z,4.01
2022-09-14T09:04:32.753Z,4.02
2022-09-14T09:06:33.638Z,4.01
2022-09-14T09:08:35.285Z,4.01
2022-09-14T09:12:37.705Z,4.02
2022-09-14T09:14:38.953Z,4.01
2022-09-14T09:16:39.849Z,4.02
2022-09-14T09:18:40.936Z,4.01
2022-09-14T09:20:42.527Z,4.01
2022-09-14T09:22:43.927Z,4.01
2022-09-14T09:24:45.642Z,4.01
2022-09-14T09:28:47.916Z,4.01
2022-09-14T09:30:48.857Z,4.01
2022-09-14T09:32:49.919Z,4.01
2022-09-14T09:34:50.938Z,4.01
2022-09-14T09:36:52.416Z,4.01
2022-09-14T09:38:53.753Z,4.01
2022-09-14T09:40:54.522Z,4
2022-09-14T09:45:00.836Z,4.01
2022-09-14T09:46:58.746Z,4
2022-09-14T09:48:59.908Z,4.01
2022-09-14T09:51:01.715Z,4.01
2022-09-14T09:55:03.887Z,4
2022-09-14T09:57:04.952Z,4.01
2022-09-14T09:59:05.938Z,4.01
2022-09-14T10:01:11.587Z,4
2022-09-14T10:03:08.481Z,4.01
2022-09-14T10:05:10.220Z,4.01
2022-09-14T10:07:11.248Z,4.01
2022-09-14T10:11:13.085Z,4.01
2022-09-14T10:13:13.968Z,4.02
2022-09-14T10:15:14.867Z,4.02
2022-09-14T10:17:16.447Z,4.02
2022-09-14T10:19:17.552Z,4.02
2022-09-14T10:21:18.981Z,4.02
2022-09-14T10:23:19.937Z,4.02
2022-09-14T10:25:21.077Z,4.02
2022-09-14T10:27:21.970Z,4.02
2022-09-14T10:29:23.169Z,4.02
2022-09-14T10:31:24.626Z,4.02
2022-09-14T10:33:25.591Z,4.02
2022-09-14T10:35:26.974Z,4.02
2022-09-14T10:37:28.046Z,4.03
2022-09-14T10:39:29.847Z,4.03
2022-09-14T10:41:31.472Z,4.03
2022-09-14T10:43:33.154Z,4.03
2022-09-14T10:45:34.324Z,4.03
2022-09-14T10:47:35.567Z,4.03
2022-09-14T10:49:37.259Z,4.03
2022-09-14T10:53:39.455Z,4.04
2022-09-14T10:55:40.790Z,4.04
2022-09-14T10:59:42.641Z,4.04
2022-09-14T11:01:44.278Z,4.04
2022-09-14T11:03:46.072Z,4.04
2022-09-14T11:07:48.381Z,4.05
2022-09-14T11:09:50.076Z,4.05
2022-09-14T11:11:51.362Z,4.06
2022-09-14T11:13:53.736Z,4.08
2022-09-14T11:15:55.153Z,4.08
2022-09-14T11:17:56.182Z,4.08
2022-09-14T11:19:57.323Z,4.08
2022-09-14T11:21:59.068Z,4.07
2022-09-14T11:26:01.937Z,4.07
2022-09-14T11:28:03.461Z,4.07
2022-09-14T11:30:05.145Z,4.08
2022-09-14T11:32:21.237Z,4.1
2022-09-14T11:36:09.874Z,4.1
2022-09-14T11:38:12.269Z,4.1
2022-09-14T11:40:13.693Z,4.1
2022-09-14T11:42:14.622Z,4.11
2022-09-14T11:46:17.347Z,4.12
2022-09-14T11:48:41.697Z,4.12
2022-09-14T11:50:19.511Z,4.12
2022-09-14T11:52:21.850Z,4.12
2022-09-14T11:54:22.716Z,4.13
2022-09-14T11:58:25.607Z,4.14
2022-09-14T12:00:26.935Z,4.14
2022-09-14T12:02:27.829Z,4.14
2022-09-14T12:04:28.553Z,4.14
2022-09-14T12:08:31.476Z,4.15
2022-09-14T12:10:32.329Z,4.15
2022-09-14T12:12:33.179Z,4.15
2022-09-14T12:14:34.479Z,4.16
2022-09-14T12:16:35.692Z,4.16
2022-09-14T12:18:37.302Z,4.16
2022-09-14T12:20:38.432Z,4.16
2022-09-14T12:24:41.133Z,4.17
2022-09-14T12:26:41.884Z,4.16
2022-09-14T12:30:44.524Z,4.14
2022-09-14T12:34:46.446Z,4.15
2022-09-14T12:36:47.726Z,4.15
2022-09-14T12:38:49.502Z,4.15
2022-09-14T12:40:50.535Z,4.15
2022-09-14T12:42:52.035Z,4.15
2022-09-14T12:44:53.700Z,4.15
2022-09-14T12:46:55.026Z,4.15
2022-09-14T12:47:38.722Z,4.14
2022-09-14T12:49:39.527Z,4.14
2022-09-14T12:51:41.045Z,4.14
2022-09-14T12:53:42.814Z,4.14
2022-09-14T12:57:44.838Z,4.14
2022-09-14T12:59:45.851Z,4.14
2022-09-14T13:01:47.475Z,4.14
2022-09-14T13:03:48.735Z,4.14
2022-09-14T13:05:49.576Z,4.14
2022-09-14T13:07:50.752Z,4.15
2022-09-14T13:11:53.127Z,4.14
2022-09-14T13:13:54.146Z,4.14
2022-09-14T13:15:55.673Z,4.14
2022-09-14T13:17:56.655Z,4.14
2022-09-14T13:19:58.337Z,4.14
2022-09-14T13:21:59.839Z,4.14
2022-09-14T13:24:01.444Z,4.14
2022-09-14T13:26:02.576Z,4.14
2022-09-14T13:28:03.632Z,4.14
2022-09-14T13:32:05.767Z,4.14
2022-09-14T13:34:07.246Z,4.14
2022-09-14T13:38:10.378Z,4.14
2022-09-14T13:40:11.524Z,4.14
2022-09-14T13:44:13.889Z,4.14
2022-09-14T13:46:17.195Z,4.14
2022-09-14T13:48:16.373Z,4.14
2022-09-14T13:50:17.726Z,4.13
2022-09-14T13:52:18.809Z,4.13
2022-09-14T13:54:19.719Z,4.14
2022-09-14T13:56:20.884Z,4.13
2022-09-14T14:00:23.503Z,4.13
2022-09-14T14:02:24.389Z,4.13
2022-09-14T14:04:25.328Z,4.13
2022-09-14T14:06:26.237Z,4.13
2022-09-14T14:10:29.422Z,4.13
2022-09-14T14:12:30.317Z,4.13
2022-09-14T14:16:33.029Z,4.13
2022-09-14T14:18:34.273Z,4.13
2022-09-14T14:20:35.833Z,4.13
2022-09-14T14:22:37.460Z,4.13
2022-09-14T14:26:39.707Z,4.12
2022-09-14T14:28:40.975Z,4.13
2022-09-14T14:30:42.201Z,4.13
2022-09-14T14:32:44.029Z,4.13
2022-09-14T14:34:45.517Z,4.13
2022-09-14T14:36:46.417Z,4.13
2022-09-14T14:38:48.239Z,4.13
2022-09-14T14:42:50.899Z,4.13
2022-09-14T14:44:52.466Z,4.12
2022-09-14T14:46:54.299Z,4.13
2022-09-14T14:48:55.599Z,4.12
2022-09-14T14:52:58.150Z,4.12
2022-09-14T14:54:59.033Z,4.12
2022-09-14T14:57:00.866Z,4.12
2022-09-14T14:59:02.509Z,4.12
2022-09-14T15:01:03.512Z,4.12
2022-09-14T15:03:04.663Z,4.12
2022-09-14T15:05:06.182Z,4.12
2022-09-14T15:09:08.369Z,4.12
2022-09-14T15:11:10.063Z,4.12
2022-09-14T15:15:12.350Z,4.12
2022-09-14T15:17:13.380Z,4.12
2022-09-14T15:19:14.804Z,4.12
2022-09-14T15:21:15.875Z,4.12
2022-09-14T15:25:18.407Z,4.12
2022-09-14T15:27:20.010Z,4.12
2022-09-14T15:29:21.455Z,4.12
2022-09-14T15:31:23.074Z,4.12
2022-09-14T15:33:26.268Z,4.12
2022-09-14T15:35:26.298Z,4.12
2022-09-14T15:37:27.136Z,4.12
2022-09-14T15:41:29.513Z,4.12
2022-09-14T15:43:31.120Z,4.12
2022-09-14T15:45:32.891Z,4.12
2022-09-14T15:47:36.154Z,4.12
2022-09-14T15:51:36.201Z,4.12
2022-09-14T15:53:37.883Z,4.12
2022-09-14T15:55:39.311Z,4.12
2022-09-14T15:57:41.112Z,4.12
2022-09-14T15:59:42.485Z,4.12
2022-09-14T16:01:44.053Z,4.12
2022-09-14T16:03:45.639Z,4.12
2022-09-14T16:07:48.056Z,4.12
2022-09-14T16:09:49.671Z,4.12
2022-09-14T16:11:50.603Z,4.11
2022-09-14T16:13:52.040Z,4.11
2022-09-14T16:15:56.675Z,4.11
2022-09-14T16:17:54.688Z,4.11
2022-09-14T16:19:55.689Z,4.11
2022-09-14T16:23:57.571Z,4.11
2022-09-14T16:25:59.203Z,4.11
2022-09-14T16:28:00.714Z,4.11
2022-09-14T16:30:01.747Z,4.11
2022-09-14T16:34:04.842Z,4.11
2022-09-14T16:36:05.953Z,4.11
2022-09-14T16:40:08.699Z,4.11
2022-09-14T16:42:09.847Z,4.11
2022-09-14T16:44:11.537Z,4.11
2022-09-14T16:46:12.773Z,4.11
2022-09-14T16:50:15.916Z,4.11
2022-09-14T16:52:17.315Z,4.11
2022-09-14T16:54:19.049Z,4.11
2022-09-14T16:56:20.347Z,4.1
2022-09-14T16:58:21.343Z,4.11
2022-09-14T17:00:23.183Z,4.1
2022-09-14T17:02:24.691Z,4.1
2022-09-14T17:06:27.032Z,4.11
2022-09-14T17:08:28.580Z,4.11
2022-09-14T17:10:29.627Z,4.1
2022-09-14T17:12:30.462Z,4.1
2022-09-14T17:16:32.625Z,4.1
2022-09-14T17:18:34.022Z,4.1
2022-09-14T17:20:35.509Z,4.1
2022-09-14T17:22:36.607Z,4.1
2022-09-14T17:24:38.429Z,4.1
2022-09-14T17:26:39.385Z,4.1
2022-09-14T17:28:41.253Z,4.1
2022-09-14T17:32:44.030Z,4.1
2022-09-14T17:34:45.205Z,4.1
2022-09-14T17:36:46.569Z,4.1
2022-09-14T17:38:48.322Z,4.1
2022-09-14T17:40:49.275Z,4.1
2022-09-14T17:42:50.364Z,4.1
2022-09-14T17:44:51.242Z,4.1
2022-09-14T17:48:54.211Z,4.1
2022-09-14T17:50:55.627Z,4.1
2022-09-14T17:52:57.364Z,4.1
2022-09-14T17:54:58.286Z,4.1
2022-09-14T17:56:59.173Z,4.1
2022-09-14T17:59:00.908Z,4.1
2022-09-14T18:01:02.263Z,4.1
2022-09-14T18:05:05.542Z,4.1
2022-09-14T18:07:06.499Z,4.1
2022-09-14T18:09:07.959Z,4.1
2022-09-14T18:11:09.680Z,4.09
2022-09-14T18:15:15.182Z,4.09
2022-09-14T18:17:15.050Z,4.09
2022-09-14T18:19:16.173Z,4.09
2022-09-14T18:21:17.869Z,4.1
2022-09-14T18:23:19.409Z,4.1
2022-09-14T18:25:21.124Z,4.1
2022-09-14T18:27:22.342Z,4.1
2022-09-14T18:31:26.003Z,4.09
2022-09-14T18:33:27.617Z,4.09
2022-09-14T18:35:28.734Z,4.09
2022-09-14T18:37:30.367Z,4.09
2022-09-14T18:39:32.179Z,4.09
2022-09-14T18:41:33.057Z,4.09
2022-09-14T18:43:34.753Z,4.09
2022-09-14T18:47:37.663Z,4.09
2022-09-14T18:49:38.944Z,4.09
2022-09-14T18:51:39.963Z,4.09
2022-09-14T18:53:41.149Z,4.09
2022-09-14T18:57:43.886Z,4.09
2022-09-14T18:59:44.547Z,4.09
2022-09-14T19:03:47.996Z,4.09
2022-09-14T19:05:49.154Z,4.09
2022-09-14T19:07:50.922Z,4.08
2022-09-14T19:09:52.478Z,4.09
2022-09-14T19:13:55.390Z,4.09
2022-09-14T19:15:57.260Z,4.08
2022-09-14T19:17:58.295Z,4.09
2022-09-14T19:19:59.540Z,4.08
2022-09-14T19:22:00.871Z,4.08
2022-09-14T19:24:02.872Z,4.08
2022-09-14T19:26:04.352Z,4.08
2022-09-14T19:30:06.248Z,4.08
2022-09-14T19:32:07.726Z,4.08
2022-09-14T19:34:53.066Z,4.08
2022-09-14T19:36:54.738Z,4.08
2022-09-14T19:38:56.544Z,4.08
2022-09-14T19:40:58.225Z,4.08
2022-09-14T19:42:59.913Z,4.08
2022-09-14T19:45:01.428Z,4.08
2022-09-14T19:47:03.193Z,4.08
2022-09-14T19:51:05.291Z,4.08
2022-09-14T19:53:06.784Z,4.08
2022-09-14T19:57:09.003Z,4.08
2022-09-14T19:59:10.055Z,4.08
2022-09-14T20:01:11.868Z,4.08
2022-09-14T20:03:13.149Z,4.08
2022-09-14T20:07:14.962Z,4.08
2022-09-14T20:09:16.529Z,4.08
2022-09-14T20:11:20.050Z,4.08
2022-09-14T20:13:19.208Z,4.08
2022-09-14T20:15:21.127Z,4.08
2022-09-14T20:17:31.565Z,4.08
2022-09-14T20:19:32.561Z,4.08
2022-09-14T20:23:25.882Z,4.08
2022-09-14T20:25:27.569Z,4.08
2022-09-14T20:27:28.807Z,4.08
2022-09-14T20:29:30.014Z,4.08
2022-09-14T20:33:32.426Z,4.08
2022-09-14T20:35:33.685Z,4.08
2022-09-14T20:37:35.368Z,4.08
2022-09-14T20:39:36.302Z,4.07
2022-09-14T20:41:37.348Z,4.08
2022-09-14T20:43:38.287Z,4.08
2022-09-14T20:45:40.100Z,4.07
2022-09-14T20:49:42.679Z,4.07
2022-09-14T20:51:44.908Z,4.07
2022-09-14T20:53:44.759Z,4.07
2022-09-14T20:55:46.132Z,4.07
2022-09-14T20:57:47.701Z,4.08
2022-09-14T20:59:48.864Z,4.07
2022-09-14T21:01:50.625Z,4.07
2022-09-14T21:05:53.319Z,4.07
2022-09-14T21:07:56.358Z,4.07
2022-09-14T21:09:56.020Z,4.07
2022-09-14T21:11:57.470Z,4.07
2022-09-14T21:16:00.254Z,4.07
2022-09-14T21:18:01.863Z,4.07
2022-09-14T21:20:03.039Z,4.07
2022-09-14T21:22:04.444Z,4.07
2022-09-14T21:24:06.231Z,4.06
2022-09-14T21:26:07.781Z,4.07
2022-09-14T21:28:09.183Z,4.07
2022-09-14T21:32:12.517Z,4.07
2022-09-14T21:34:13.872Z,4.07
2022-09-14T21:36:14.842Z,4.07
2022-09-14T21:38:16.486Z,4.07
2022-09-14T21:40:17.847Z,4.06
2022-09-14T21:42:19.201Z,4.06
2022-09-14T21:44:20.179Z,4.06
2022-09-14T21:48:23.424Z,4.06
2022-09-14T21:50:24.376Z,4.06
2022-09-14T21:52:25.862Z,4.06
2022-09-14T21:54:27.199Z,4.06
2022-09-14T21:58:29.261Z,4.06
2022-09-14T22:00:38.208Z,4.06
2022-09-14T22:02:32.004Z,4.06
2022-09-14T22:04:33.687Z,4.06
2022-09-14T22:06:34.621Z,4.06
2022-09-14T22:08:36.165Z,4.06
2022-09-14T22:10:37.440Z,4.06
2022-09-14T22:14:39.557Z,4.06
2022-09-14T22:16:41.337Z,4.06
2022-09-14T22:18:42.394Z,4.06
2022-09-14T22:20:44.056Z,4.06
2022-09-14T22:22:45.446Z,4.06
2022-09-14T22:24:46.498Z,4.06
2022-09-14T22:26:47.476Z,4.06
2022-09-14T22:30:50.794Z,4.06
2022-09-14T22:32:51.871Z,4.06
2022-09-14T22:34:53.216Z,4.06
2022-09-14T22:36:54.733Z,4.06
2022-09-14T22:38:56.310Z,4.06
2022-09-14T22:40:57.315Z,4.06
2022-09-14T22:42:58.886Z,4.05
2022-09-14T22:47:01.386Z,4.06
2022-09-14T22:49:03.030Z,4.05
2022-09-14T22:51:04.218Z,4.06
2022-09-14T22:53:05.157Z,4.05
2022-09-14T22:57:07.488Z,4.06
2022-09-14T22:59:08.549Z,4.06
2022-09-14T23:03:11.675Z,4.05
2022-09-14T23:05:12.984Z,4.05
2022-09-14T23:07:14.007Z,4.06
2022-09-14T23:09:15.683Z,4.05
2022-09-14T23:13:18.029Z,4.05
2022-09-14T23:15:18.960Z,4.05
2022-09-14T23:17:20.753Z,4.05
2022-09-14T23:19:22.385Z,4.05
2022-09-14T23:21:23.606Z,4.05
2022-09-14T23:23:24.828Z,4.05
2022-09-14T23:25:26.538Z,4.05
2022-09-14T23:29:29.241Z,4.05
2022-09-14T23:31:30.389Z,4.05
2022-09-14T23:33:32.214Z,4.05
2022-09-14T23:35:36.991Z,4.05
2022-09-14T23:37:34.749Z,4.05
2022-09-14T23:39:36.070Z,4.05
2022-09-14T23:41:37.459Z,4.05
2022-09-14T23:43:38.664Z,4.05
2022-09-14T23:45:40.484Z,4.05
2022-09-14T23:47:41.369Z,4.05
2022-09-14T23:49:42.610Z,4.05
2022-09-14T23:51:44.285Z,4.05
2022-09-14T23:55:46.861Z,4.05
2022-09-14T23:57:48.595Z,4.04
